createdAt,value
2023-01-27T00:01:09.433Z,102431.38
2023-01-27T00:03:37.486Z,102433.31
2023-01-27T00:06:06.575Z,102432.44
2023-01-27T00:08:34.666Z,102434.25
2023-01-27T00:11:21.348Z,102436.06
2023-01-27T00:13:50.674Z,102440.50
2023-01-27T00:16:21.476Z,102430.72
2023-01-27T00:18:49.527Z,102436.06
2023-01-27T00:21:34.803Z,102436.94
2023-01-27T00:24:19.962Z,102432.56
2023-01-27T00:26:48.053Z,102432.56
2023-01-27T00:29:17.343Z,102437.06
2023-01-27T00:32:02.756Z,102425.47
2023-01-27T00:34:32.930Z,102437.06
2023-01-27T00:37:00.931Z,102429.97
2023-01-27T00:39:28.993Z,102427.28
2023-01-27T00:41:56.958Z,102427.34
2023-01-27T00:44:26.408Z,102437.13
2023-01-27T00:46:54.601Z,102435.41
2023-01-27T00:49:24.155Z,102438.09
2023-01-27T00:51:52.428Z,102436.31
2023-01-27T00:54:20.805Z,102440.81
2023-01-27T00:56:48.843Z,102441.66
2023-01-27T00:59:16.747Z,102443.47
2023-01-27T01:01:46.087Z,102433.63
2023-01-27T01:04:14.176Z,102438.19
2023-01-27T01:06:42.104Z,102446.28
2023-01-27T01:09:10.075Z,102446.28
2023-01-27T01:11:38.045Z,102447.22
2023-01-27T01:14:06.152Z,102446.34
2023-01-27T01:16:34.132Z,102446.44
2023-01-27T01:19:04.691Z,102449.97
2023-01-27T01:21:32.720Z,102448.22
2023-01-27T01:24:00.709Z,102458.94
2023-01-27T01:26:28.671Z,102458.06
2023-01-27T01:28:56.592Z,102466.19
2023-01-27T01:31:24.668Z,102468.88
2023-01-27T01:33:52.599Z,102461.75
2023-01-27T01:36:22.488Z,102462.66
2023-01-27T01:38:50.643Z,102476.16
2023-01-27T01:41:20.874Z,102473.47
2023-01-27T01:43:49.430Z,102469.91
2023-01-27T01:46:18.477Z,102468.09
2023-01-27T01:48:49.617Z,102470.84
2023-01-27T01:51:21.431Z,102469.03
2023-01-27T01:53:57.617Z,102476.22
2023-01-27T01:56:31.943Z,102470.84
2023-01-27T01:59:07.886Z,102479.81
2023-01-27T02:01:36.318Z,102469.09
2023-01-27T02:04:09.057Z,102470.91
2023-01-27T02:06:43.680Z,102477.19
2023-01-27T02:09:13.114Z,102474.53
2023-01-27T02:11:41.124Z,102470.03
2023-01-27T02:14:09.230Z,102470.97
2023-01-27T02:16:37.633Z,102471.91
2023-01-27T02:19:06.744Z,102462.09
2023-01-27T02:21:35.317Z,102479.06
2023-01-27T02:24:10.869Z,102473.75
2023-01-27T02:26:43.616Z,102479.13
2023-01-27T02:29:14.632Z,102486.28
2023-01-27T02:31:43.250Z,102479.19
2023-01-27T02:34:15.072Z,102476.56
2023-01-27T02:36:47.835Z,102494.41
2023-01-27T02:39:18.102Z,102481.06
2023-01-27T02:41:50.824Z,102484.66
2023-01-27T02:44:18.869Z,102484.72
2023-01-27T02:46:47.225Z,102481.16
2023-01-27T02:49:15.295Z,102494.63
2023-01-27T02:51:43.274Z,102490.22
2023-01-27T02:54:11.280Z,102497.38
2023-01-27T02:56:39.659Z,102489.34
2023-01-27T02:59:09.197Z,102489.38
2023-01-27T03:01:37.202Z,102493.81
2023-01-27T03:04:06.110Z,102495.59
2023-01-27T03:06:34.088Z,102502.78
2023-01-27T03:09:02.112Z,102496.56
2023-01-27T03:11:47.388Z,102503.72
2023-01-27T03:14:16.777Z,102505.53
2023-01-27T03:17:01.862Z,102500.19
2023-01-27T03:19:29.886Z,102510.91
2023-01-27T03:22:01.988Z,102497.56
2023-01-27T03:24:30.078Z,102507.41
2023-01-27T03:26:58.273Z,102506.53
2023-01-27T03:29:46.047Z,102502.09
2023-01-27T03:32:14.082Z,102501.19
2023-01-27T03:34:42.051Z,102517.31
2023-01-27T03:37:27.833Z,102514.69
2023-01-27T03:40:12.966Z,102516.50
2023-01-27T03:42:58.380Z,102517.44
2023-01-27T03:45:44.974Z,102518.31
2023-01-27T03:48:18.466Z,102520.13
2023-01-27T03:50:53.137Z,102520.13
2023-01-27T03:53:21.487Z,102518.34
2023-01-27T03:55:49.564Z,102519.28
2023-01-27T03:58:21.257Z,102513.94
2023-01-27T04:00:53.679Z,102509.50
2023-01-27T04:03:40.331Z,102520.16
2023-01-27T04:06:28.013Z,102516.69
2023-01-27T04:08:56.645Z,102510.41
2023-01-27T04:11:42.341Z,102513.09
2023-01-27T04:14:12.160Z,102523.81
2023-01-27T04:16:41.742Z,102515.78
2023-01-27T04:19:11.384Z,102523.81
2023-01-27T04:21:40.119Z,102522.03
2023-01-27T04:24:16.801Z,102535.47
2023-01-27T04:26:46.043Z,102528.31
2023-01-27T04:29:14.643Z,102529.25
2023-01-27T04:31:44.525Z,102553.28
2023-01-27T04:34:13.584Z,102535.53
2023-01-27T04:36:42.320Z,102533.72
2023-01-27T04:39:11.093Z,102545.38
2023-01-27T04:41:39.469Z,102540.03
2023-01-27T04:44:08.309Z,102537.34
2023-01-27T04:46:36.378Z,102554.34
2023-01-27T04:49:06.757Z,102538.25
2023-01-27T04:51:35.391Z,102541.00
2023-01-27T04:54:05.585Z,102536.59
2023-01-27T04:56:35.507Z,102550.84
2023-01-27T04:59:07.823Z,102533.03
2023-01-27T05:01:35.943Z,102539.28
2023-01-27T05:04:05.521Z,102543.75
2023-01-27T05:06:34.019Z,102544.66
2023-01-27T05:09:02.021Z,102554.47
2023-01-27T05:11:30.195Z,102547.34
2023-01-27T05:13:58.217Z,102545.59
2023-01-27T05:16:27.581Z,102553.63
2023-01-27T05:18:56.280Z,102536.69
2023-01-27T05:21:28.307Z,102547.41
2023-01-27T05:23:56.413Z,102555.44
2023-01-27T05:26:26.666Z,102546.53
2023-01-27T05:28:57.236Z,102549.22
2023-01-27T05:31:27.442Z,102546.53
2023-01-27T05:33:57.199Z,102550.97
2023-01-27T05:36:27.699Z,102548.44
2023-01-27T05:38:56.473Z,102558.66
2023-01-27T05:41:24.728Z,102553.38
2023-01-27T05:43:54.041Z,102547.03
2023-01-27T05:46:23.913Z,102549.66
2023-01-27T05:48:53.928Z,102553.38
2023-01-27T05:51:24.527Z,102552.50
2023-01-27T05:53:55.762Z,102557.88
2023-01-27T05:56:26.510Z,102560.53
2023-01-27T05:58:55.593Z,102563.22
2023-01-27T06:01:25.505Z,102561.34
2023-01-27T06:03:53.752Z,102566.72
2023-01-27T06:06:23.764Z,102576.47
2023-01-27T06:08:53.396Z,102574.63
2023-01-27T06:11:22.298Z,102576.44
2023-01-27T06:13:50.241Z,102585.38
2023-01-27T06:16:19.535Z,102593.41
2023-01-27T06:18:50.705Z,102588.06
2023-01-27T06:21:20.672Z,102589.84
2023-01-27T06:23:49.187Z,102586.28
2023-01-27T06:26:20.384Z,102595.22
2023-01-27T06:28:48.572Z,102588.97
2023-01-27T06:31:18.508Z,102592.50
2023-01-27T06:33:46.639Z,102588.06
2023-01-27T06:36:19.321Z,102596.09
2023-01-27T06:38:49.045Z,102602.34
2023-01-27T06:41:18.512Z,102607.72
2023-01-27T06:43:46.529Z,102604.13
2023-01-27T06:46:15.140Z,102607.72
2023-01-27T06:48:43.278Z,102612.16
2023-01-27T06:51:11.454Z,102614.03
2023-01-27T06:53:39.423Z,102599.78
2023-01-27T06:56:07.990Z,102608.78
2023-01-27T06:58:37.314Z,102605.31
2023-01-27T07:01:07.134Z,102602.66
2023-01-27T07:03:37.866Z,102610.75
2023-01-27T07:06:06.510Z,102611.63
2023-01-27T07:08:34.788Z,102621.41
2023-01-27T07:11:05.964Z,102613.38
2023-01-27T07:13:34.075Z,102623.97
2023-01-27T07:16:03.478Z,102623.03
2023-01-27T07:18:32.028Z,102619.50
2023-01-27T07:21:00.044Z,102629.34
2023-01-27T07:23:27.968Z,102640.97
2023-01-27T07:25:56.065Z,102644.59
2023-01-27T07:28:24.056Z,102647.31
2023-01-27T07:30:52.234Z,102637.53
2023-01-27T07:33:21.709Z,102651.84
2023-01-27T07:35:50.384Z,102646.50
2023-01-27T07:38:18.438Z,102650.09
2023-01-27T07:40:46.447Z,102646.53
2023-01-27T07:43:14.459Z,102653.69
2023-01-27T07:45:42.484Z,102656.31
2023-01-27T07:48:12.515Z,102656.38
2023-01-27T07:50:42.693Z,102655.44
2023-01-27T07:53:11.820Z,102661.72
2023-01-27T07:55:39.810Z,102661.72
2023-01-27T07:58:08.311Z,102662.66
2023-01-27T08:00:36.756Z,102659.06
2023-01-27T08:03:06.169Z,102659.06
2023-01-27T08:05:35.721Z,102668.03
2023-01-27T08:08:05.163Z,102667.16
2023-01-27T08:10:33.364Z,102660.03
2023-01-27T08:13:01.460Z,102658.25
2023-01-27T08:15:29.446Z,102668.97
2023-01-27T08:18:00.498Z,102664.50
2023-01-27T08:20:29.020Z,102673.41
2023-01-27T08:22:57.437Z,102677.03
2023-01-27T08:25:26.848Z,102683.31
2023-01-27T08:27:56.737Z,102689.53
2023-01-27T08:30:24.846Z,102693.09
2023-01-27T08:32:52.868Z,102690.47
2023-01-27T08:35:21.034Z,102702.91
2023-01-27T08:37:49.649Z,102698.50
2023-01-27T08:40:18.897Z,102700.34
2023-01-27T08:42:50.664Z,102703.00
2023-01-27T08:45:18.817Z,102702.97
2023-01-27T08:47:47.028Z,102700.31
2023-01-27T08:50:15.419Z,102693.16
2023-01-27T08:52:43.578Z,102703.78
2023-01-27T08:55:12.492Z,102699.72
2023-01-27T08:57:40.654Z,102711.59
2023-01-27T09:00:12.860Z,102703.97
2023-01-27T09:02:41.387Z,102702.81
2023-01-27T09:05:09.576Z,102713.22
2023-01-27T09:07:37.612Z,102713.13
2023-01-27T09:10:19.653Z,102712.09
2023-01-27T09:12:47.884Z,102714.66
2023-01-27T09:15:17.301Z,102719.81
2023-01-27T09:17:45.265Z,102726.81
2023-01-27T09:20:14.288Z,102731.25
2023-01-27T09:22:45.022Z,102733.00
2023-01-27T09:25:16.392Z,102738.31
2023-01-27T09:27:45.023Z,102750.72
2023-01-27T09:30:14.768Z,102750.66
2023-01-27T09:32:44.332Z,102747.09
2023-01-27T09:35:12.732Z,102749.75
2023-01-27T09:37:46.177Z,102750.56
2023-01-27T09:40:24.898Z,102753.25
2023-01-27T09:43:16.421Z,102755.00
2023-01-27T09:46:14.049Z,102747.91
2023-01-27T09:48:59.637Z,102752.28
2023-01-27T09:51:37.550Z,102756.78
2023-01-27T09:54:28.921Z,102759.44
2023-01-27T09:57:10.445Z,102749.25
2023-01-27T10:00:09.309Z,102753.56
2023-01-27T10:02:58.069Z,102756.22
2023-01-27T10:05:53.224Z,102755.28
2023-01-27T10:08:45.227Z,102753.56
2023-01-27T10:11:21.286Z,102752.63
2023-01-27T10:14:05.010Z,102748.13
2023-01-27T10:16:53.452Z,102756.13
2023-01-27T10:19:36.884Z,102752.56
2023-01-27T10:22:17.354Z,102751.66
2023-01-27T10:24:59.580Z,102757.00
2023-01-27T10:27:33.228Z,102748.97
2023-01-27T10:30:09.679Z,102750.66
2023-01-27T10:32:45.587Z,102745.31
2023-01-27T10:35:19.261Z,102741.72
2023-01-27T10:37:59.999Z,102741.72
2023-01-27T10:40:37.081Z,102744.34
2023-01-27T10:43:11.517Z,102734.50
2023-01-27T10:45:46.106Z,102742.53
2023-01-27T10:48:28.942Z,102747.88
2023-01-27T10:51:03.849Z,102743.38
2023-01-27T10:53:43.079Z,102746.00
2023-01-27T10:56:16.298Z,102739.78
2023-01-27T10:58:50.691Z,102744.19
2023-01-27T11:01:26.565Z,102744.19
2023-01-27T11:04:00.112Z,102744.25
2023-01-27T11:06:31.874Z,102740.66
2023-01-27T11:09:09.733Z,102741.53
2023-01-27T11:11:49.234Z,102734.50
2023-01-27T11:14:23.586Z,102742.41
2023-01-27T11:16:53.505Z,102735.28
2023-01-27T11:19:30.904Z,102734.41
2023-01-27T11:22:08.298Z,102734.41
2023-01-27T11:24:46.212Z,102730.00
2023-01-27T11:27:28.197Z,102726.38
2023-01-27T11:30:02.952Z,102733.56
2023-01-27T11:32:44.071Z,102722.78
2023-01-27T11:35:14.046Z,102720.00
2023-01-27T11:37:44.077Z,102716.47
2023-01-27T11:40:19.682Z,102716.50
2023-01-27T11:42:48.198Z,102722.78
2023-01-27T11:45:19.343Z,102720.97
2023-01-27T11:47:50.145Z,102712.06
2023-01-27T11:50:20.865Z,102704.00
2023-01-27T11:52:53.248Z,102712.81
2023-01-27T11:55:26.659Z,102691.41
2023-01-27T11:57:58.925Z,102702.06
2023-01-27T12:00:27.796Z,102696.63
2023-01-27T12:03:04.704Z,102687.72
2023-01-27T12:05:35.963Z,102703.69
2023-01-27T12:08:05.880Z,102701.91
2023-01-27T12:10:38.828Z,102687.56
2023-01-27T12:13:10.462Z,102686.69
2023-01-27T12:15:48.411Z,102695.50
2023-01-27T12:18:17.327Z,102688.31
2023-01-27T12:20:47.307Z,102684.63
2023-01-27T12:23:21.450Z,102690.88
2023-01-27T12:25:54.963Z,102686.41
2023-01-27T12:28:29.451Z,102681.88
2023-01-27T12:31:05.428Z,102679.13
2023-01-27T12:33:35.666Z,102679.13
2023-01-27T12:36:14.224Z,102680.84
2023-01-27T12:38:49.015Z,102676.34
2023-01-27T12:41:25.328Z,102677.28
2023-01-27T12:43:55.695Z,102667.41
2023-01-27T12:46:25.913Z,102674.53
2023-01-27T12:49:02.687Z,102677.19
2023-01-27T12:51:40.999Z,102667.34
2023-01-27T12:54:18.171Z,102673.56
2023-01-27T12:56:50.612Z,102669.09
2023-01-27T12:59:21.479Z,102678.00
2023-01-27T13:02:02.029Z,102678.88
2023-01-27T13:04:31.288Z,102676.19
2023-01-27T13:07:07.822Z,102676.16
2023-01-27T13:09:39.752Z,102676.16
2023-01-27T13:12:18.073Z,102685.00
2023-01-27T13:14:46.333Z,102676.97
2023-01-27T13:17:37.370Z,102678.75
2023-01-27T13:20:16.226Z,102677.78
2023-01-27T13:22:48.252Z,102679.50
2023-01-27T13:25:23.131Z,102677.78
2023-01-27T13:27:57.497Z,102690.22
2023-01-27T13:30:31.317Z,102677.72
2023-01-27T13:33:05.173Z,102680.41
2023-01-27T13:35:38.557Z,102683.97
2023-01-27T13:38:16.613Z,102681.28
2023-01-27T13:40:46.995Z,102685.75
2023-01-27T13:43:24.420Z,102686.59
2023-01-27T13:45:56.491Z,102682.13
2023-01-27T13:48:28.451Z,102686.53
2023-01-27T13:51:04.632Z,102691.91
2023-01-27T13:53:32.773Z,102689.22
2023-01-27T13:56:18.579Z,102696.31
2023-01-27T13:59:01.553Z,102690.09
2023-01-27T14:01:43.331Z,102699.91
2023-01-27T14:04:34.569Z,102695.59
2023-01-27T14:07:13.968Z,102694.66
2023-01-27T14:09:57.314Z,102702.63
2023-01-27T14:12:40.734Z,102696.31
2023-01-27T14:15:23.034Z,102705.13
2023-01-27T14:17:58.715Z,102701.47
2023-01-27T14:20:40.155Z,102700.44
2023-01-27T14:23:22.977Z,102706.50
2023-01-27T14:26:00.624Z,102696.66
2023-01-27T14:28:34.836Z,102704.59
2023-01-27T14:31:10.397Z,102704.47
2023-01-27T14:33:59.667Z,102705.31
2023-01-27T14:36:33.904Z,102712.38
2023-01-27T14:39:07.522Z,102715.94
2023-01-27T14:41:41.196Z,102716.69
2023-01-27T14:44:20.152Z,102718.38
2023-01-27T14:47:00.946Z,102715.69
2023-01-27T14:49:47.818Z,102724.56
2023-01-27T14:52:31.575Z,102724.69
2023-01-27T14:55:11.944Z,102719.31
2023-01-27T14:57:48.763Z,102729.09
2023-01-27T15:00:32.546Z,102735.28
2023-01-27T15:03:32.068Z,102731.69
2023-01-27T15:06:07.166Z,102737.91
2023-01-27T15:08:41.696Z,102736.09
2023-01-27T15:11:29.332Z,102737.00
2023-01-27T15:14:21.048Z,102742.31
2023-01-27T15:17:06.499Z,102741.44
2023-01-27T15:19:50.073Z,102743.16
2023-01-27T15:22:37.606Z,102745.03
2023-01-27T15:25:33.460Z,102738.91
2023-01-27T15:28:03.668Z,102747.94
2023-01-27T15:30:38.051Z,102753.34
2023-01-27T15:33:49.601Z,102749.84
2023-01-27T15:36:31.585Z,102752.59
2023-01-27T15:39:20.221Z,102744.56
2023-01-27T15:41:54.716Z,102759.78
2023-01-27T15:44:30.864Z,102758.97
2023-01-27T15:47:09.548Z,102753.63
2023-01-27T15:49:42.048Z,102763.44
2023-01-27T15:52:26.123Z,102755.47
2023-01-27T15:54:56.410Z,102757.28
2023-01-27T15:57:29.982Z,102758.25
2023-01-27T16:00:03.159Z,102763.59
2023-01-27T16:02:32.448Z,102756.44
2023-01-27T16:05:17.481Z,102763.59
2023-01-27T16:07:49.427Z,102759.09
2023-01-27T16:10:21.485Z,102756.44
2023-01-27T16:12:49.614Z,102760.03
2023-01-27T16:15:38.987Z,102762.72
2023-01-27T16:18:26.443Z,102770.75
2023-01-27T16:21:03.292Z,102769.03
2023-01-27T16:23:41.601Z,102760.97
2023-01-27T16:26:21.184Z,102766.28
2023-01-27T16:28:53.446Z,102768.09
2023-01-27T16:31:24.309Z,102768.09
2023-01-27T16:33:58.370Z,102769.81
2023-01-27T16:36:30.435Z,102768.97
2023-01-27T16:39:22.457Z,102784.16
2023-01-27T16:41:54.624Z,102777.06
2023-01-27T16:44:23.503Z,102772.56
2023-01-27T16:46:56.807Z,102778.81
2023-01-27T16:49:28.086Z,102782.41
2023-01-27T16:51:56.844Z,102781.56
2023-01-27T16:54:30.690Z,102786.00
2023-01-27T16:56:59.104Z,102785.03
2023-01-27T16:59:31.005Z,102788.59
2023-01-27T17:02:03.774Z,102792.19
2023-01-27T17:04:32.988Z,102795.75
2023-01-27T17:07:07.382Z,102797.56
2023-01-27T17:09:42.952Z,102802.06
2023-01-27T17:12:29.719Z,102814.50
2023-01-27T17:14:58.850Z,102803.78
2023-01-27T17:17:28.681Z,102810.97
2023-01-27T17:20:01.712Z,102814.59
2023-01-27T17:22:38.409Z,102808.34
2023-01-27T17:25:15.552Z,102822.63
2023-01-27T17:27:46.081Z,102822.56
2023-01-27T17:30:22.761Z,102827.03
2023-01-27T17:32:52.997Z,102832.41
2023-01-27T17:35:23.894Z,102831.44
2023-01-27T17:37:52.139Z,102833.25
2023-01-27T17:40:23.643Z,102829.69
2023-01-27T17:42:51.693Z,102832.31
2023-01-27T17:45:25.600Z,102826.06
2023-01-27T17:47:54.097Z,102834.06
2023-01-27T17:50:24.618Z,102838.53
2023-01-27T17:52:56.289Z,102831.38
2023-01-27T17:55:27.601Z,102834.06
2023-01-27T17:58:04.371Z,102835.78
2023-01-27T18:00:37.649Z,102834.91
2023-01-27T18:03:14.373Z,102846.44
2023-01-27T18:05:45.027Z,102846.34
2023-01-27T18:08:16.070Z,102846.25
2023-01-27T18:10:45.555Z,102848.94
2023-01-27T18:13:34.808Z,102850.72
2023-01-27T18:16:05.018Z,102851.59
2023-01-27T18:18:35.231Z,102862.31
2023-01-27T18:21:05.708Z,102862.31
2023-01-27T18:23:36.126Z,102863.19
2023-01-27T18:26:14.807Z,102869.44
2023-01-27T18:28:45.493Z,102866.75
2023-01-27T18:31:18.041Z,102861.38
2023-01-27T18:33:46.745Z,102867.63
2023-01-27T18:36:22.999Z,102860.44
2023-01-27T18:38:54.398Z,102859.53
2023-01-27T18:41:29.091Z,102865.78
2023-01-27T18:43:57.639Z,102872.94
2023-01-27T18:46:26.816Z,102866.66
2023-01-27T18:48:55.642Z,102872.94
2023-01-27T18:51:23.981Z,102874.69
2023-01-27T18:53:51.958Z,102874.63
2023-01-27T18:56:20.493Z,102880.94
2023-01-27T18:58:50.285Z,102874.69
2023-01-27T19:01:23.226Z,102883.53
2023-01-27T19:03:52.580Z,102888.91
2023-01-27T19:06:20.682Z,102888.91
2023-01-27T19:08:52.094Z,102891.59
2023-01-27T19:11:20.200Z,102895.13
2023-01-27T19:13:48.648Z,102896.91
2023-01-27T19:16:19.043Z,102909.38
2023-01-27T19:18:47.171Z,102910.25
2023-01-27T19:21:17.219Z,102901.34
2023-01-27T19:23:45.995Z,102905.78
2023-01-27T19:26:18.419Z,102895.91
2023-01-27T19:28:49.041Z,102905.75
2023-01-27T19:31:19.144Z,102901.25
2023-01-27T19:33:47.582Z,102901.19
2023-01-27T19:36:22.638Z,102907.44
2023-01-27T19:38:56.393Z,102901.09
2023-01-27T19:41:24.470Z,102905.53
2023-01-27T19:43:52.439Z,102896.59
2023-01-27T19:46:24.429Z,102907.31
2023-01-27T19:48:52.941Z,102907.31
2023-01-27T19:51:21.165Z,102908.09
2023-01-27T19:53:49.190Z,102909.91
2023-01-27T19:56:19.549Z,102911.72
2023-01-27T19:58:51.383Z,102914.41
2023-01-27T20:01:19.808Z,102920.56
2023-01-27T20:03:49.248Z,102926.78
2023-01-27T20:06:21.098Z,102924.97
2023-01-27T20:08:52.162Z,102916.88
2023-01-27T20:11:32.382Z,102919.53
2023-01-27T20:14:01.206Z,102921.31
2023-01-27T20:16:29.954Z,102923.06
2023-01-27T20:19:00.201Z,102915.91
2023-01-27T20:21:28.706Z,102914.09
2023-01-27T20:23:56.666Z,102908.72
2023-01-27T20:26:24.884Z,102908.69
2023-01-27T20:28:52.965Z,102914.00
2023-01-27T20:31:23.216Z,102911.31
2023-01-27T20:33:51.988Z,102913.06
2023-01-27T20:36:22.964Z,102907.69
2023-01-27T20:38:51.712Z,102914.88
2023-01-27T20:41:21.448Z,102907.69
2023-01-27T20:43:50.074Z,102912.13
2023-01-27T20:46:20.871Z,102905.84
2023-01-27T20:48:49.010Z,102912.09
2023-01-27T20:51:17.628Z,102911.22
2023-01-27T20:53:47.392Z,102915.56
2023-01-27T20:56:18.469Z,102911.06
2023-01-27T20:58:47.291Z,102903.00
2023-01-27T21:01:16.918Z,102914.59
2023-01-27T21:03:45.157Z,102909.19
2023-01-27T21:06:15.715Z,102911.88
2023-01-27T21:08:43.889Z,102922.59
2023-01-27T21:11:15.901Z,102919.03
2023-01-27T21:13:43.928Z,102919.00
2023-01-27T21:16:12.153Z,102915.38
2023-01-27T21:18:40.381Z,102927.00
2023-01-27T21:21:08.307Z,102920.75
2023-01-27T21:23:36.292Z,102921.63
2023-01-27T21:26:09.196Z,102918.13
2023-01-27T21:28:38.651Z,102918.00
2023-01-27T21:31:07.796Z,102902.78
2023-01-27T21:33:37.123Z,102906.38
2023-01-27T21:36:05.586Z,102902.78
2023-01-27T21:38:33.848Z,102907.25
2023-01-27T21:41:05.963Z,102909.84
2023-01-27T21:43:51.564Z,102908.91
2023-01-27T21:46:20.961Z,102898.19
2023-01-27T21:48:49.179Z,102890.22
2023-01-27T21:51:17.153Z,102897.28
2023-01-27T21:53:47.574Z,102891.06
2023-01-27T21:56:15.584Z,102897.31
2023-01-27T21:58:43.525Z,102899.09
2023-01-27T22:01:11.934Z,102891.94
2023-01-27T22:03:41.281Z,102890.22
2023-01-27T22:06:10.839Z,102894.63
2023-01-27T22:08:39.069Z,102889.28
2023-01-27T22:11:09.862Z,102885.72
2023-01-27T22:13:39.566Z,102883.97
2023-01-27T22:16:08.810Z,102883.97
2023-01-27T22:18:36.976Z,102883.03
2023-01-27T22:21:06.543Z,102883.09
2023-01-27T22:23:34.637Z,102879.53
2023-01-27T22:26:02.685Z,102878.63
2023-01-27T22:28:33.390Z,102877.75
2023-01-27T22:31:03.384Z,102881.38
2023-01-27T22:33:32.186Z,102885.88
2023-01-27T22:36:01.444Z,102879.66
2023-01-27T22:38:30.811Z,102881.47
2023-01-27T22:40:59.671Z,102874.28
2023-01-27T22:43:27.688Z,102874.31
2023-01-27T22:45:55.696Z,102875.22
2023-01-27T22:48:23.770Z,102876.09
2023-01-27T22:50:51.679Z,102883.28
2023-01-27T22:53:19.710Z,102882.41
2023-01-27T22:55:56.783Z,102881.56
2023-01-27T22:58:25.031Z,102872.66
2023-01-27T23:00:53.227Z,102879.84
2023-01-27T23:03:22.183Z,102874.47
2023-01-27T23:05:50.678Z,102870.03
2023-01-27T23:08:20.676Z,102874.53
2023-01-27T23:10:50.756Z,102876.34
2023-01-27T23:13:18.793Z,102878.09
2023-01-27T23:15:47.086Z,102873.66
2023-01-27T23:18:15.038Z,102871.88
2023-01-27T23:20:43.677Z,102880.88
2023-01-27T23:23:12.398Z,102881.75
2023-01-27T23:25:45.157Z,102871.00
2023-01-27T23:28:16.759Z,102874.56
2023-01-27T23:30:45.317Z,102874.56
2023-01-27T23:33:14.321Z,102882.69
2023-01-27T23:35:42.792Z,102880.31
2023-01-27T23:38:22.875Z,102881.19
2023-01-27T23:41:02.007Z,102875.84
2023-01-27T23:43:32.017Z,102882.94
2023-01-27T23:46:00.585Z,102883.88
2023-01-27T23:48:28.811Z,102881.13
2023-01-27T23:50:56.905Z,102882.94
2023-01-27T23:53:24.871Z,102874.97
2023-01-27T23:55:57.295Z,102877.66
2023-01-27T23:58:25.653Z,102878.53
